createdAt,value
2019-04-21T00:01:05.681Z,91.20
2019-04-21T00:03:42.282Z,92.00
2019-04-21T00:06:22.473Z,92.70
2019-04-21T00:08:59.300Z,93.70
2019-04-21T00:11:29.360Z,94.60
2019-04-21T00:13:52.218Z,95.80
2019-04-21T00:16:14.114Z,95.40
2019-04-21T00:18:58.193Z,95.30
2019-04-21T00:21:29.144Z,95.80
2019-04-21T00:24:25.190Z,95.70
2019-04-21T00:27:03.858Z,95.90
2019-04-21T00:29:38.352Z,96.40
2019-04-21T00:32:03.362Z,96.40
2019-04-21T00:34:21.606Z,96.20
2019-04-21T00:37:05.126Z,96.80
2019-04-21T00:39:59.206Z,97.10
2019-04-21T00:42:14.392Z,97.30
2019-04-21T00:44:36.775Z,97.80
2019-04-21T00:47:25.263Z,98.40
2019-04-21T00:49:56.626Z,98.70
2019-04-21T00:52:58.072Z,99.90
2019-04-21T00:58:03.452Z,99.90
2019-04-21T01:00:32.544Z,99.90
2019-04-21T01:03:09.340Z,99.90
2019-04-21T01:05:42.852Z,99.90
2019-04-21T01:08:09.438Z,99.90
2019-04-21T01:10:35.964Z,99.90
2019-04-21T01:13:18.376Z,99.90
2019-04-21T01:15:48.942Z,99.90
2019-04-21T01:18:16.885Z,99.90
2019-04-21T01:23:10.520Z,99.90
2019-04-21T01:25:50.441Z,99.90
2019-04-21T01:28:29.013Z,99.90
2019-04-21T01:31:03.454Z,99.90
2019-04-21T01:33:38.018Z,99.90
2019-04-21T01:36:06.939Z,99.90
2019-04-21T01:38:42.841Z,99.90
2019-04-21T01:41:18.383Z,99.90
2019-04-21T01:43:39.465Z,99.90
2019-04-21T01:46:09.300Z,99.90
2019-04-21T01:48:41.521Z,99.90
2019-04-21T01:51:16.066Z,99.90
2019-04-21T01:54:07.636Z,99.90
2019-04-21T01:56:51.422Z,99.90
2019-04-21T01:59:11.046Z,99.90
2019-04-21T02:01:52.438Z,99.90
2019-04-21T02:04:33.085Z,99.90
2019-04-21T02:06:57.339Z,99.90
2019-04-21T02:09:37.192Z,99.90
2019-04-21T02:12:10.553Z,99.90
2019-04-21T02:14:45.865Z,99.90
2019-04-21T02:17:14.922Z,99.90
2019-04-21T02:19:37.510Z,99.90
2019-04-21T02:22:11.474Z,99.90
2019-04-21T02:24:56.822Z,99.90
2019-04-21T02:27:21.848Z,99.90
2019-04-21T02:29:55.948Z,99.90
2019-04-21T02:32:42.079Z,99.90
2019-04-21T02:37:44.655Z,99.90
2019-04-21T02:40:20.948Z,99.90
2019-04-21T02:42:46.606Z,99.90
2019-04-21T02:45:09.295Z,99.90
2019-04-21T02:47:50.670Z,99.90
2019-04-21T02:52:46.301Z,99.90
2019-04-21T02:55:08.226Z,99.90
2019-04-21T02:57:51.444Z,99.90
2019-04-21T03:00:25.076Z,99.90
2019-04-21T03:03:45.283Z,99.90
2019-04-21T03:06:26.390Z,99.90
2019-04-21T03:11:42.605Z,99.90
2019-04-21T03:14:05.873Z,99.90
2019-04-21T03:16:26.504Z,99.90
2019-04-21T03:19:05.854Z,99.90
2019-04-21T03:21:29.025Z,99.90
2019-04-21T03:29:12.142Z,99.90
2019-04-21T03:32:06.147Z,99.90
2019-04-21T03:36:56.911Z,99.90
2019-04-21T03:39:11.969Z,99.90
2019-04-21T03:41:48.100Z,99.90
2019-04-21T03:44:14.701Z,99.90
2019-04-21T03:47:08.342Z,99.90
2019-04-21T03:52:10.814Z,99.90
2019-04-21T03:55:41.384Z,99.90
2019-04-21T03:58:05.128Z,99.90
2019-04-21T04:00:34.623Z,99.90
2019-04-21T04:16:27.018Z,99.90
2019-04-21T04:21:30.794Z,99.90
2019-04-21T04:23:57.847Z,99.90
2019-04-21T04:26:22.138Z,99.90
2019-04-21T04:28:56.283Z,99.90
2019-04-21T04:31:32.056Z,99.90
2019-04-21T04:34:05.056Z,99.90
2019-04-21T04:36:50.503Z,99.90
2019-04-21T04:39:45.600Z,99.90
2019-04-21T04:42:35.498Z,99.90
2019-04-21T04:45:01.600Z,99.90
2019-04-21T04:52:31.292Z,99.90
2019-04-21T04:55:03.860Z,99.90
2019-04-21T04:57:29.473Z,99.90
2019-04-21T04:59:49.870Z,99.90
2019-04-21T05:02:29.944Z,99.90
2019-04-21T05:05:15.704Z,99.90
2019-04-21T05:09:59.393Z,99.90
2019-04-21T05:15:04.850Z,99.90
2019-04-21T05:17:38.183Z,99.90
2019-04-21T05:20:08.866Z,99.90
2019-04-21T05:22:29.030Z,99.90
2019-04-21T05:24:55.358Z,99.90
2019-04-21T05:27:46.959Z,99.90
2019-04-21T05:30:49.027Z,99.90
2019-04-21T05:33:39.832Z,99.90
2019-04-21T05:36:10.945Z,99.90
2019-04-21T05:38:56.645Z,99.90
2019-04-21T05:41:23.201Z,99.90
2019-04-21T05:43:56.466Z,99.90
2019-04-21T05:46:32.064Z,99.90
2019-04-21T05:51:55.635Z,99.90
2019-04-21T05:54:53.013Z,99.40
2019-04-21T05:57:02.550Z,97.80
2019-04-21T05:59:32.396Z,95.50
2019-04-21T06:02:15.282Z,94.20
2019-04-21T06:04:52.644Z,92.60
2019-04-21T06:07:13.926Z,92.30
2019-04-21T06:09:40.960Z,91.60
2019-04-21T06:12:04.716Z,91.00
2019-04-21T06:14:45.093Z,89.80
2019-04-21T06:17:15.334Z,86.50
2019-04-21T06:19:43.507Z,82.50
2019-04-21T06:25:13.426Z,80.50
2019-04-21T06:27:26.388Z,77.00
2019-04-21T06:29:50.217Z,75.40
2019-04-21T06:32:36.255Z,73.90
2019-04-21T06:35:17.162Z,71.80
2019-04-21T06:37:43.218Z,68.80
2019-04-21T06:40:15.132Z,66.20
2019-04-21T06:42:32.658Z,64.60
2019-04-21T06:45:12.363Z,64.70
2019-04-21T06:47:47.320Z,63.50
2019-04-21T06:50:09.658Z,62.40
2019-04-21T06:52:51.404Z,61.90
2019-04-21T06:58:02.143Z,60.30
2019-04-21T07:00:27.079Z,58.10
2019-04-21T07:03:11.533Z,58.40
2019-04-21T07:05:33.551Z,57.50
2019-04-21T07:08:17.052Z,57.40
2019-04-21T07:10:31.956Z,56.30
2019-04-21T07:13:03.290Z,55.70
2019-04-21T07:15:41.006Z,54.90
2019-04-21T07:18:04.508Z,55.70
2019-04-21T07:20:36.733Z,55.10
2019-04-21T07:23:09.488Z,55.30
2019-04-21T07:25:49.781Z,56.00
2019-04-21T07:28:14.062Z,54.80
2019-04-21T07:30:50.214Z,53.10
2019-04-21T07:33:34.499Z,53.10
2019-04-21T07:35:49.294Z,53.80
2019-04-21T07:38:16.661Z,53.60
2019-04-21T07:40:41.714Z,54.30
2019-04-21T07:43:13.665Z,54.30
2019-04-21T07:45:40.115Z,52.60
2019-04-21T07:48:19.247Z,53.20
2019-04-21T07:51:20.727Z,52.30
2019-04-21T07:53:55.929Z,51.60
2019-04-21T07:56:09.717Z,51.20
2019-04-21T07:58:58.261Z,50.60
2019-04-21T08:01:28.954Z,51.60
2019-04-21T08:03:58.116Z,50.60
2019-04-21T08:06:26.831Z,51.00
2019-04-21T08:08:55.992Z,52.50
2019-04-21T08:11:25.857Z,52.00
2019-04-21T08:13:57.252Z,50.70
2019-04-21T08:16:30.599Z,49.50
2019-04-21T08:19:09.762Z,49.20
2019-04-21T08:21:35.644Z,49.30
2019-04-21T08:24:06.368Z,49.00
2019-04-21T08:26:44.906Z,48.60
2019-04-21T08:29:21.464Z,48.40
2019-04-21T08:31:50.329Z,47.10
2019-04-21T08:34:14.078Z,47.50
2019-04-21T08:36:43.238Z,47.80
2019-04-21T08:39:12.996Z,47.10
2019-04-21T08:41:46.027Z,46.80
2019-04-21T08:44:23.197Z,46.90
2019-04-21T08:46:55.086Z,48.30
2019-04-21T08:49:22.239Z,47.70
2019-04-21T08:51:57.823Z,46.20
2019-04-21T08:57:16.327Z,46.20
2019-04-21T09:02:37.251Z,46.10
2019-04-21T09:05:09.487Z,45.70
2019-04-21T09:07:39.433Z,45.80
2019-04-21T09:10:03.007Z,46.00
2019-04-21T09:12:38.820Z,45.20
2019-04-21T09:15:08.087Z,44.00
2019-04-21T09:17:31.625Z,44.30
2019-04-21T09:20:13.960Z,42.60
2019-04-21T09:22:38.226Z,43.20
2019-04-21T09:25:14.657Z,42.20
2019-04-21T09:27:42.459Z,43.20
2019-04-21T09:30:01.040Z,44.10
2019-04-21T09:32:30.781Z,44.20
2019-04-21T09:35:03.356Z,44.20
2019-04-21T09:37:43.488Z,45.60
2019-04-21T09:40:03.018Z,46.40
2019-04-21T09:42:40.969Z,46.40
2019-04-21T09:45:07.669Z,47.40
2019-04-21T09:47:45.041Z,46.00
2019-04-21T09:50:10.253Z,46.70
2019-04-21T09:52:48.850Z,47.10
2019-04-21T09:55:15.948Z,47.60
2019-04-21T09:57:48.453Z,48.20
2019-04-21T10:00:19.463Z,48.90
2019-04-21T10:02:54.479Z,49.30
2019-04-21T10:05:16.892Z,49.40
2019-04-21T10:07:46.795Z,49.80
2019-04-21T10:10:17.277Z,50.90
2019-04-21T10:12:47.774Z,50.90
2019-04-21T10:15:19.118Z,50.70
2019-04-21T10:17:53.979Z,51.50
2019-04-21T10:20:24.508Z,51.10
2019-04-21T10:22:55.296Z,51.40
2019-04-21T10:25:25.196Z,51.30
2019-04-21T10:27:55.174Z,50.90
2019-04-21T10:30:24.926Z,51.60
2019-04-21T10:32:54.770Z,52.40
2019-04-21T10:35:26.001Z,51.40
2019-04-21T10:38:06.793Z,51.90
2019-04-21T10:40:29.191Z,53.00
2019-04-21T10:42:58.939Z,51.70
2019-04-21T10:45:28.770Z,51.40
2019-04-21T10:47:58.849Z,52.00
2019-04-21T10:50:28.820Z,51.40
2019-04-21T10:53:01.084Z,51.50
2019-04-21T10:55:44.424Z,52.40
2019-04-21T10:58:28.478Z,53.20
2019-04-21T11:01:27.378Z,53.90
2019-04-21T11:04:19.550Z,53.20
2019-04-21T11:06:42.401Z,53.90
2019-04-21T11:09:13.760Z,53.70
2019-04-21T11:11:46.467Z,52.90
2019-04-21T11:14:15.418Z,51.20
2019-04-21T11:16:46.861Z,49.80
2019-04-21T11:19:15.853Z,50.10
2019-04-21T11:21:45.259Z,50.30
2019-04-21T11:24:14.338Z,50.90
2019-04-21T11:26:43.117Z,51.20
2019-04-21T11:29:12.824Z,49.20
2019-04-21T11:31:43.240Z,49.70
2019-04-21T11:34:13.405Z,51.40
2019-04-21T11:36:42.185Z,52.10
2019-04-21T11:39:38.888Z,51.00
2019-04-21T11:42:01.646Z,50.60
2019-04-21T11:44:31.038Z,51.40
2019-04-21T11:47:00.567Z,51.50
2019-04-21T11:49:32.023Z,51.20
2019-04-21T11:52:00.700Z,50.80
2019-04-21T11:54:30.827Z,50.10
2019-04-21T11:57:02.210Z,48.50
2019-04-21T11:59:30.027Z,51.00
2019-04-21T12:01:59.349Z,50.40
2019-04-21T12:04:29.453Z,50.30
2019-04-21T12:06:59.726Z,51.40
2019-04-21T12:09:29.322Z,48.70
2019-04-21T12:11:59.120Z,50.10
2019-04-21T12:14:28.111Z,48.80
2019-04-21T12:16:57.236Z,49.10
2019-04-21T12:19:30.590Z,48.70
2019-04-21T12:22:10.077Z,48.30
2019-04-21T12:24:32.954Z,48.50
2019-04-21T12:27:02.242Z,49.10
2019-04-21T12:29:31.299Z,48.50
2019-04-21T12:32:22.223Z,48.50
2019-04-21T12:34:52.199Z,48.90
2019-04-21T12:37:22.747Z,49.60
2019-04-21T12:39:52.547Z,49.10
2019-04-21T12:42:22.789Z,49.00
2019-04-21T12:44:51.761Z,49.10
2019-04-21T12:47:21.670Z,49.60
2019-04-21T12:49:52.026Z,48.40
2019-04-21T12:52:21.864Z,48.10
2019-04-21T12:54:51.501Z,49.90
2019-04-21T12:57:21.418Z,48.70
2019-04-21T12:59:50.932Z,48.70
2019-04-21T13:02:19.899Z,49.20
2019-04-21T13:04:49.739Z,49.50
2019-04-21T13:07:19.498Z,48.20
2019-04-21T13:09:48.539Z,49.20
2019-04-21T13:12:17.268Z,48.40
2019-04-21T13:14:47.400Z,48.50
2019-04-21T13:17:17.221Z,48.70
2019-04-21T13:19:47.052Z,47.80
2019-04-21T13:22:16.162Z,48.60
2019-04-21T13:24:44.967Z,48.40
2019-04-21T13:27:13.654Z,47.90
2019-04-21T13:29:43.967Z,48.00
2019-04-21T13:32:14.222Z,48.80
2019-04-21T13:34:44.259Z,49.10
2019-04-21T13:37:13.072Z,49.30
2019-04-21T13:40:16.449Z,48.70
2019-04-21T13:42:36.251Z,49.00
2019-04-21T13:45:00.978Z,48.20
2019-04-21T13:47:28.630Z,47.60
2019-04-21T13:49:59.839Z,48.30
2019-04-21T13:52:28.914Z,47.40
2019-04-21T13:54:58.190Z,47.20
2019-04-21T13:57:28.368Z,47.10
2019-04-21T13:59:57.237Z,48.20
2019-04-21T14:02:26.820Z,48.20
2019-04-21T14:04:55.753Z,47.50
2019-04-21T14:07:26.046Z,47.40
2019-04-21T14:09:59.483Z,48.30
2019-04-21T14:12:25.370Z,47.90
2019-04-21T14:14:54.419Z,48.60
2019-04-21T14:17:24.674Z,48.20
2019-04-21T14:19:53.638Z,49.30
2019-04-21T14:22:24.154Z,48.00
2019-04-21T14:24:54.101Z,47.80
2019-04-21T14:27:23.991Z,48.40
2019-04-21T14:29:53.566Z,47.70
2019-04-21T14:32:22.540Z,47.70
2019-04-21T14:34:53.884Z,48.60
2019-04-21T14:37:22.637Z,48.10
2019-04-21T14:39:59.702Z,47.00
2019-04-21T14:42:22.427Z,46.80
2019-04-21T14:44:51.220Z,46.60
2019-04-21T14:47:29.481Z,46.50
2019-04-21T14:50:20.135Z,47.30
2019-04-21T14:53:07.862Z,48.00
2019-04-21T14:55:39.435Z,49.10
2019-04-21T14:58:09.440Z,50.20
2019-04-21T15:00:52.955Z,49.70
2019-04-21T15:03:21.741Z,48.20
2019-04-21T15:05:51.544Z,49.40
2019-04-21T15:08:21.495Z,48.50
2019-04-21T15:10:50.281Z,49.60
2019-04-21T15:13:19.569Z,50.00
2019-04-21T15:15:49.626Z,48.70
2019-04-21T15:18:18.798Z,48.70
2019-04-21T15:20:50.288Z,49.10
2019-04-21T15:23:18.063Z,49.50
2019-04-21T15:25:48.056Z,49.70
2019-04-21T15:28:17.771Z,50.30
2019-04-21T15:30:47.064Z,50.30
2019-04-21T15:33:16.314Z,51.20
2019-04-21T15:35:45.075Z,50.50
2019-04-21T15:38:14.035Z,51.40
2019-04-21T15:40:50.231Z,50.50
2019-04-21T15:43:14.676Z,50.00
2019-04-21T15:45:44.548Z,50.30
2019-04-21T15:48:14.011Z,51.40
2019-04-21T15:50:44.053Z,50.80
2019-04-21T15:53:13.962Z,51.60
2019-04-21T15:55:57.060Z,51.20
2019-04-21T15:58:54.618Z,51.40
2019-04-21T16:01:28.570Z,52.10
2019-04-21T16:03:59.192Z,52.50
2019-04-21T16:06:27.729Z,51.50
2019-04-21T16:08:59.010Z,52.30
2019-04-21T16:11:28.089Z,52.10
2019-04-21T16:13:57.425Z,50.70
2019-04-21T16:16:28.657Z,52.10
2019-04-21T16:18:56.482Z,51.60
2019-04-21T16:21:26.264Z,53.30
2019-04-21T16:23:56.244Z,53.30
2019-04-21T16:26:26.657Z,53.20
2019-04-21T16:28:55.475Z,53.30
2019-04-21T16:31:24.849Z,53.70
2019-04-21T16:33:54.653Z,53.40
2019-04-21T16:36:23.462Z,53.40
2019-04-21T16:38:53.487Z,53.80
2019-04-21T16:41:22.448Z,54.00
2019-04-21T16:43:51.556Z,53.20
2019-04-21T16:46:21.124Z,53.90
2019-04-21T16:48:49.805Z,53.50
2019-04-21T16:51:18.497Z,53.00
2019-04-21T16:53:52.128Z,53.60
2019-04-21T16:56:31.149Z,54.50
2019-04-21T16:59:12.953Z,55.10
2019-04-21T17:01:42.727Z,54.10
2019-04-21T17:04:12.688Z,55.10
2019-04-21T17:06:42.860Z,55.30
2019-04-21T17:09:12.631Z,55.00
2019-04-21T17:11:43.707Z,55.20
2019-04-21T17:14:28.520Z,54.20
2019-04-21T17:17:12.636Z,54.80
2019-04-21T17:26:55.314Z,55.20
2019-04-21T17:29:24.958Z,56.10
2019-04-21T17:31:53.621Z,57.00
2019-04-21T17:34:26.225Z,56.30
2019-04-21T17:36:53.071Z,56.10
2019-04-21T17:39:22.837Z,56.20
2019-04-21T17:42:05.623Z,57.90
2019-04-21T17:44:23.397Z,57.80
2019-04-21T17:47:00.692Z,57.40
2019-04-21T17:49:23.331Z,58.50
2019-04-21T17:52:16.809Z,58.40
2019-04-21T17:54:50.575Z,58.60
2019-04-21T17:57:36.843Z,58.60
2019-04-21T18:00:52.050Z,58.80
2019-04-21T18:03:00.035Z,59.20
2019-04-21T18:05:31.939Z,59.00
2019-04-21T18:07:54.398Z,60.00
2019-04-21T18:10:30.684Z,60.00
2019-04-21T18:12:57.345Z,59.80
2019-04-21T18:15:38.270Z,60.80
2019-04-21T18:17:52.412Z,60.90
2019-04-21T18:20:26.014Z,60.70
2019-04-21T18:23:22.751Z,61.00
2019-04-21T18:25:54.093Z,61.60
2019-04-21T18:28:14.442Z,62.60
2019-04-21T18:30:52.276Z,62.30
2019-04-21T18:33:27.365Z,62.40
2019-04-21T18:36:29.230Z,62.60
2019-04-21T18:39:28.811Z,62.30
2019-04-21T18:42:04.909Z,62.80
2019-04-21T18:45:11.066Z,62.20
2019-04-21T18:47:39.897Z,61.70
2019-04-21T18:49:54.566Z,61.70
2019-04-21T18:52:45.214Z,63.70
2019-04-21T18:55:09.862Z,62.60
2019-04-21T18:57:37.582Z,62.70
2019-04-21T18:59:59.449Z,62.60
2019-04-21T19:02:38.131Z,63.20
2019-04-21T19:05:04.345Z,63.60
2019-04-21T19:07:45.443Z,63.60
2019-04-21T19:10:26.675Z,63.20
2019-04-21T19:15:20.356Z,63.40
2019-04-21T19:20:26.119Z,63.80
2019-04-21T19:22:52.380Z,63.60
2019-04-21T19:25:20.613Z,65.00
2019-04-21T19:27:57.064Z,64.40
2019-04-21T19:30:36.658Z,64.10
2019-04-21T19:32:58.318Z,64.00
2019-04-21T19:35:13.049Z,63.60
2019-04-21T19:37:49.785Z,65.00
2019-04-21T19:40:31.403Z,65.30
2019-04-21T19:42:55.859Z,65.00
2019-04-21T19:45:27.929Z,65.20
2019-04-21T19:48:05.558Z,65.20
2019-04-21T19:50:36.085Z,65.60
2019-04-21T19:52:57.841Z,66.80
2019-04-21T19:55:20.060Z,66.30
2019-04-21T19:57:50.016Z,67.00
2019-04-21T20:00:20.118Z,67.20
2019-04-21T20:02:50.410Z,67.80
2019-04-21T20:05:29.746Z,68.70
2019-04-21T20:08:06.629Z,67.80
2019-04-21T20:10:44.151Z,69.50
2019-04-21T20:13:26.073Z,68.70
2019-04-21T20:15:45.848Z,71.00
2019-04-21T20:18:14.482Z,71.10
2019-04-21T20:20:31.040Z,71.60
2019-04-21T20:23:01.325Z,71.60
2019-04-21T20:25:41.816Z,73.30
2019-04-21T20:28:09.955Z,74.90
2019-04-21T20:30:52.679Z,75.60
2019-04-21T20:35:58.281Z,79.50
2019-04-21T20:38:19.069Z,79.40
2019-04-21T20:40:51.008Z,80.90
2019-04-21T20:43:36.557Z,81.40
2019-04-21T20:46:03.553Z,83.50
2019-04-21T20:48:28.628Z,84.00
2019-04-21T20:51:06.448Z,85.30
2019-04-21T20:53:34.318Z,83.70
2019-04-21T20:56:05.208Z,85.40
2019-04-21T20:58:40.732Z,86.70
2019-04-21T21:01:25.730Z,87.10
2019-04-21T21:03:46.082Z,89.40
2019-04-21T21:06:09.970Z,89.80
2019-04-21T21:08:49.810Z,90.20
2019-04-21T21:11:21.519Z,90.80
2019-04-21T21:13:53.701Z,92.80
2019-04-21T21:16:35.458Z,93.30
2019-04-21T21:19:10.291Z,93.40
2019-04-21T21:21:27.952Z,94.00
2019-04-21T21:23:58.821Z,95.20
2019-04-21T21:26:33.224Z,95.10
2019-04-21T21:28:56.356Z,95.00
2019-04-21T21:31:37.973Z,95.90
2019-04-21T21:34:13.295Z,96.90
2019-04-21T21:36:39.714Z,98.00
2019-04-21T21:39:09.648Z,98.50
2019-04-21T21:41:29.878Z,99.30
2019-04-21T21:44:01.818Z,99.90
2019-04-21T21:46:41.671Z,99.90
2019-04-21T21:49:07.580Z,99.90
2019-04-21T21:51:42.239Z,99.90
2019-04-21T21:54:00.929Z,99.90
2019-04-21T21:56:30.688Z,99.90
2019-04-21T21:59:01.206Z,99.90
2019-04-21T22:01:39.914Z,99.90
2019-04-21T22:04:12.712Z,99.90
2019-04-21T22:06:43.365Z,99.90
2019-04-21T22:09:10.347Z,99.90
2019-04-21T22:11:40.306Z,99.90
2019-04-21T22:14:16.654Z,99.90
2019-04-21T22:16:49.323Z,99.90
2019-04-21T22:19:30.027Z,99.90
2019-04-21T22:22:08.368Z,99.90
2019-04-21T22:24:35.138Z,99.90
2019-04-21T22:26:47.417Z,99.90
2019-04-21T22:29:17.329Z,99.90
2019-04-21T22:31:48.341Z,99.90
2019-04-21T22:34:23.015Z,99.90
2019-04-21T22:37:01.523Z,99.90
2019-04-21T22:39:42.127Z,99.90
2019-04-21T22:42:01.753Z,99.90
2019-04-21T22:44:24.737Z,99.90
2019-04-21T22:47:04.196Z,99.90
2019-04-21T22:49:26.475Z,99.90
2019-04-21T22:52:00.758Z,99.90
2019-04-21T22:54:34.330Z,99.90
2019-04-21T22:57:05.229Z,99.90
2019-04-21T22:59:32.036Z,99.90
2019-04-21T23:02:06.428Z,99.90
2019-04-21T23:04:41.815Z,99.90
2019-04-21T23:07:10.110Z,99.90
2019-04-21T23:09:37.529Z,99.90
2019-04-21T23:12:08.054Z,99.90
2019-04-21T23:14:46.770Z,99.90
2019-04-21T23:17:29.846Z,99.90
2019-04-21T23:20:04.058Z,99.90
2019-04-21T23:22:31.282Z,99.90
2019-04-21T23:25:02.982Z,99.90
2019-04-21T23:27:33.687Z,99.90
2019-04-21T23:30:13.554Z,99.90
2019-04-21T23:32:30.448Z,99.90
2019-04-21T23:34:51.106Z,99.90
2019-04-21T23:37:24.127Z,99.90
2019-04-21T23:40:01.148Z,99.90
2019-04-21T23:42:31.825Z,99.90
2019-04-21T23:44:58.402Z,99.90
2019-04-21T23:47:39.093Z,99.90
2019-04-21T23:50:07.367Z,99.90
2019-04-21T23:52:29.982Z,99.90
2019-04-21T23:55:00.991Z,99.90
2019-04-21T23:57:37.934Z,99.90
